Dades meteomassalio
Diari Summary for Agost 16, 2017 Units:  Metric    English   Both
« Previous Day
Next Day »
Diari Semanal Mensual Anual Personalitzat
  Maxima: Minima: Mijana:
Temperatura: 34.3 °C 18.8 °C 26 °C
Rosada: 19.2 °C 13.2 °C 16.9 °C
Humitat: 89 % 30 % 62 %
Velocitat del vent: 20.4 km/h 0.0 km/h 2.3 km/h
Racha vent: 20.4 km/h - -
Vent:- - SE
Pressio: 1019.2 hPa 1015.5 hPa -
Pluja: 0.0 mm    
Historical Graphs
 
 
Tabular Data for Agost 16, 2017
Time Temperature Dew Point Pressure Wind Wind Speed Wind Gust Humidity Rainfall Rate (Hourly) solar Conditions
00:03 22.3 °C 19.1 °C 1017.2 hPa Calm     82 % 0.0 mm 0.0 W/m2 RA
00:08 22.2 °C 19.2 °C 1017.2 hPa Calm     83 % 0.0 mm 0.0 W/m2 CLR
00:13 22.1 °C 19.1 °C 1017.2 hPa Calm     83 % 0.0 mm 0.0 W/m2 CLR
00:18 22.0 °C 19.0 °C 1017.2 hPa Calm     83 % 0.0 mm 0.0 W/m2 CLR
00:23 21.8 °C 18.6 °C 1017.2 hPa Calm     82 % 0.0 mm 0.0 W/m2 CLR
00:28 21.6 °C 18.6 °C 1017.2 hPa Calm     83 % 0.0 mm 0.0 W/m2 CLR
00:33 21.5 °C 18.5 °C 1016.8 hPa Calm     83 % 0.0 mm 0.0 W/m2 CLR
00:38 21.4 °C 18.6 °C 1016.8 hPa Calm     84 % 0.0 mm 0.0 W/m2 CLR
00:43 21.3 °C 18.4 °C 1017.2 hPa Calm     84 % 0.0 mm 0.0 W/m2 CLR
00:48 21.2 °C 18.6 °C 1017.2 hPa Calm     85 % 0.0 mm 0.0 W/m2 CLR
00:53 21.1 °C 18.2 °C 1017.2 hPa Calm     84 % 0.0 mm 0.0 W/m2 CLR
00:58 21.0 °C 18.4 °C 1017.2 hPa Calm     85 % 0.0 mm 0.0 W/m2 CLR
01:03 20.8 °C 18.2 °C 1017.2 hPa Calm     85 % 0.0 mm 0.0 W/m2 CLR
01:08 20.7 °C 18.1 °C 1017.5 hPa Calm     85 % 0.0 mm 0.0 W/m2 CLR
01:13 20.6 °C 18.0 °C 1017.2 hPa Calm     85 % 0.0 mm 0.0 W/m2 CLR
01:18 20.6 °C 17.9 °C 1017.2 hPa Calm     85 % 0.0 mm 0.0 W/m2 CLR
01:23 20.4 °C 18.0 °C 1017.2 hPa Calm     86 % 0.0 mm 0.0 W/m2 CLR
01:28 20.4 °C 17.9 °C 1017.5 hPa Calm     86 % 0.0 mm 0.0 W/m2 CLR
01:33 20.3 °C 17.9 °C 1017.2 hPa Calm     86 % 0.0 mm 0.0 W/m2 CLR
01:38 20.3 °C 17.9 °C 1017.2 hPa Calm     86 % 0.0 mm 0.0 W/m2 CLR
01:43 20.3 °C 17.8 °C 1017.2 hPa Calm     86 % 0.0 mm 0.0 W/m2 CLR
01:48 20.2 °C 17.8 °C 1017.2 hPa Calm     86 % 0.0 mm 0.0 W/m2 CLR
01:53 20.1 °C 17.7 °C 1017.2 hPa Calm     86 % 0.0 mm 0.0 W/m2 CLR
01:58 20.1 °C 17.9 °C 1017.2 hPa Calm     87 % 0.0 mm 0.0 W/m2 CLR
02:03 20.0 °C 17.6 °C 1017.2 hPa Calm     86 % 0.0 mm 0.0 W/m2 CLR
02:08 19.9 °C 17.7 °C 1017.2 hPa Calm     87 % 0.0 mm 0.0 W/m2 CLR
02:13 19.9 °C 17.7 °C 1017.2 hPa Calm     87 % 0.0 mm 0.0 W/m2 CLR
02:18 19.8 °C 17.6 °C 1017.2 hPa Calm     87 % 0.0 mm 0.0 W/m2 CLR
02:19 19.8 °C 17.6 °C 1017.2 hPa Calm     87 % 0.0 mm 0.0 W/m2 CLR
02:24 19.8 °C 17.6 °C 1017.2 hPa Calm     87 % 0.0 mm 0.0 W/m2 CLR
02:29 19.8 °C 17.6 °C 1017.2 hPa Calm     87 % 0.0 mm 0.0 W/m2 CLR
02:34 19.7 °C 17.5 °C 1017.2 hPa Calm     87 % 0.0 mm 0.0 W/m2 CLR
02:39 19.6 °C 17.4 °C 1017.2 hPa Calm     87 % 0.0 mm 0.0 W/m2 CLR
02:44 19.5 °C 17.3 °C 1017.2 hPa Calm     87 % 0.0 mm 0.0 W/m2 CLR
02:49 19.4 °C 17.2 °C 1017.2 hPa Calm     87 % 0.0 mm 0.0 W/m2 CLR
02:54 19.3 °C 17.1 °C 1017.2 hPa Calm     87 % 0.0 mm 0.0 W/m2 CLR
02:59 19.3 °C 17.1 °C 1017.2 hPa Calm     87 % 0.0 mm 0.0 W/m2 CLR
03:04 19.2 °C 17.2 °C 1017.2 hPa Calm     88 % 0.0 mm 0.0 W/m2 CLR
03:09 19.2 °C 17.1 °C 1017.2 hPa Calm     88 % 0.0 mm 0.0 W/m2 CLR
03:14 19.2 °C 17.1 °C 1017.2 hPa Calm     88 % 0.0 mm 0.0 W/m2 CLR
03:19 19.2 °C 17.1 °C 1017.2 hPa Calm     88 % 0.0 mm 0.0 W/m2 CLR
03:24 19.1 °C 17.1 °C 1017.2 hPa Calm     88 % 0.0 mm 0.0 W/m2 CLR
03:29 19.1 °C 17.1 °C 1017.2 hPa Calm     88 % 0.0 mm 0.0 W/m2 CLR
03:34 19.1 °C 17.1 °C 1017.2 hPa Calm     88 % 0.0 mm 0.0 W/m2 CLR
03:39 19.1 °C 17.1 °C 1017.2 hPa Calm     88 % 0.0 mm 0.0 W/m2 CLR
03:44 19.0 °C 16.9 °C 1017.5 hPa Calm     88 % 0.0 mm 0.0 W/m2 CLR
03:49 18.9 °C 16.8 °C 1017.5 hPa Calm     88 % 0.0 mm 0.0 W/m2 CLR
03:54 18.9 °C 17.1 °C 1017.5 hPa Calm     89 % 0.0 mm 0.0 W/m2 CLR
03:59 18.9 °C 16.9 °C 1017.5 hPa Calm     88 % 0.0 mm 0.0 W/m2 CLR
04:04 18.9 °C 16.8 °C 1017.5 hPa Calm     88 % 0.0 mm 0.0 W/m2 CLR
04:09 18.8 °C 16.8 °C 1017.5 hPa Calm     88 % 0.0 mm 0.0 W/m2 CLR
04:14 18.9 °C 17.1 °C 1017.5 hPa Calm     89 % 0.0 mm 0.0 W/m2 CLR
04:19 18.9 °C 17.1 °C 1017.5 hPa Calm     89 % 0.0 mm 0.0 W/m2 CLR
04:24 19.0 °C 17.2 °C 1017.5 hPa Calm     89 % 0.0 mm 0.0 W/m2 CLR
04:29 19.1 °C 17.2 °C 1017.5 hPa Calm     89 % 0.0 mm 0.0 W/m2 CLR
04:34 19.1 °C 17.3 °C 1017.5 hPa Calm     89 % 0.0 mm 0.0 W/m2 CLR
04:39 19.1 °C 17.3 °C 1017.5 hPa Calm     89 % 0.0 mm 0.0 W/m2 CLR
04:44 19.1 °C 17.3 °C 1017.5 hPa Calm     89 % 0.0 mm 0.0 W/m2 CLR
04:49 19.1 °C 17.3 °C 1017.5 hPa Calm     89 % 0.0 mm 0.0 W/m2 CLR
04:54 19.2 °C 17.3 °C 1017.5 hPa Calm     89 % 0.0 mm 0.0 W/m2 CLR
04:59 19.2 °C 17.3 °C 1017.8 hPa Calm     89 % 0.0 mm 0.0 W/m2 CLR
05:04 19.2 °C 17.3 °C 1017.8 hPa Calm     89 % 0.0 mm 0.0 W/m2 CLR
05:09 19.3 °C 17.4 °C 1017.8 hPa Calm     89 % 0.0 mm 0.0 W/m2 CLR
05:14 19.4 °C 17.6 °C 1017.8 hPa Calm     89 % 0.0 mm 0.0 W/m2 CLR
05:19 19.5 °C 17.6 °C 1017.8 hPa Calm     89 % 0.0 mm 0.0 W/m2 CLR
05:21 19.5 °C 17.6 °C 1017.8 hPa Calm     89 % 0.0 mm 0.0 W/m2 CLR
05:22 19.5 °C 17.6 °C 1017.8 hPa Calm     89 % 0.0 mm 0.0 W/m2 CLR
05:26 19.6 °C 17.6 °C 1017.8 hPa Calm     88 % 0.0 mm 0.0 W/m2 CLR
05:31 19.7 °C 17.6 °C 1017.8 hPa Calm     88 % 0.0 mm 0.0 W/m2 CLR
05:36 19.7 °C 17.7 °C 1017.8 hPa West 3.2 km/h 3.2 km/h 88 % 0.0 mm 0.0 W/m2 CLR
05:41 19.8 °C 17.8 °C 1017.8 hPa Calm     88 % 0.0 mm 0.0 W/m2 CLR
05:46 19.9 °C 17.8 °C 1017.8 hPa Calm     88 % 0.0 mm 0.0 W/m2 CLR
05:51 19.8 °C 17.8 °C 1017.8 hPa Calm     88 % 0.0 mm 0.0 W/m2 CLR
05:56 19.8 °C 17.7 °C 1017.8 hPa Calm     88 % 0.0 mm 0.0 W/m2 CLR
06:01 19.8 °C 17.7 °C 1017.8 hPa Calm     88 % 0.0 mm 0.0 W/m2 CLR
06:06 19.8 °C 17.8 °C 1017.8 hPa Calm     88 % 0.0 mm 0.0 W/m2 CLR
06:11 20.0 °C 18.1 °C 1017.8 hPa Calm     89 % 0.0 mm 0.0 W/m2 CLR
06:16 20.2 °C 18.3 °C 1018.2 hPa Calm     89 % 0.0 mm 0.0 W/m2 CLR
06:21 20.4 °C 18.5 °C 1018.2 hPa SW 3.7 km/h   89 % 0.0 mm 0.0 W/m2 CLR
06:27 20.6 °C 18.7 °C 1018.2 hPa Calm     89 % 0.0 mm 0.0 W/m2 CLR
06:32 20.8 °C 18.7 °C 1018.2 hPa WSW 6.4 km/h 6.4 km/h 88 % 0.0 mm 0.0 W/m2 CLR
06:37 20.8 °C 18.8 °C 1018.2 hPa Calm     88 % 0.0 mm 0.0 W/m2 CLR
06:42 20.9 °C 18.8 °C 1018.2 hPa SW 1.9 km/h 1.9 km/h 88 % 0.0 mm 0.0 W/m2 CLR
06:47 20.9 °C 18.7 °C 1018.2 hPa WSW 3.2 km/h 3.2 km/h 87 % 0.0 mm 0.0 W/m2 CLR
06:52 20.9 °C 18.7 °C 1018.2 hPa Calm     87 % 0.0 mm 0.0 W/m2 CLR
06:57 20.9 °C 18.7 °C 1018.2 hPa Calm     87 % 0.0 mm 0.0 W/m2 CLR
07:02 20.9 °C 18.5 °C 1018.2 hPa Calm     86 % 0.0 mm 0.0 W/m2 OVC
07:07 20.9 °C 18.5 °C 1018.2 hPa Calm     86 % 0.0 mm 0.0 W/m2 OVC
07:12 20.9 °C 18.3 °C 1018.2 hPa Calm     85 % 0.0 mm 0.0 W/m2 OVC
07:17 20.9 °C 18.1 °C 1018.5 hPa Calm     84 % 0.0 mm 5.0 W/m2 OVC
07:22 21.0 °C 18.0 °C 1018.5 hPa Calm     83 % 0.0 mm 11.0 W/m2 BKN
07:27 21.0 °C 18.0 °C 1018.5 hPa Calm     83 % 0.0 mm 19.0 W/m2 BKN
07:32 21.0 °C 17.8 °C 1018.5 hPa Calm     82 % 0.0 mm 23.0 W/m2 BKN
07:37 21.1 °C 17.7 °C 1018.5 hPa Calm     81 % 0.0 mm 26.0 W/m2 BKN
07:42 21.1 °C 17.4 °C 1018.5 hPa Calm     80 % 0.0 mm 32.0 W/m2 BKN
07:47 21.1 °C 17.5 °C 1018.5 hPa Calm     80 % 0.0 mm 35.0 W/m2 BKN
07:52 21.1 °C 17.3 °C 1018.5 hPa Calm     79 % 0.0 mm 37.0 W/m2 BKN
07:57 21.1 °C 17.3 °C 1018.5 hPa Calm     79 % 0.0 mm 46.0 W/m2 SCT
08:02 21.1 °C 17.3 °C 1018.8 hPa Calm     79 % 0.0 mm 54.0 W/m2 SCT
08:07 21.1 °C 17.3 °C 1018.8 hPa Calm     79 % 0.0 mm 54.0 W/m2 SCT
08:12 21.2 °C 17.4 °C 1018.8 hPa Calm     79 % 0.0 mm 56.0 W/m2 SCT
08:17 21.1 °C 17.3 °C 1018.8 hPa Calm     79 % 0.0 mm 67.0 W/m2 SCT
08:22 21.2 °C 17.2 °C 1018.8 hPa Calm     78 % 0.0 mm 76.0 W/m2 SCT
08:27 21.2 °C 17.0 °C 1018.8 hPa Calm     77 % 0.0 mm 86.0 W/m2 FEW
08:32 21.2 °C 17.0 °C 1018.8 hPa Calm     77 % 0.0 mm 120.0 W/m2 CLR
08:37 21.3 °C 16.9 °C 1018.8 hPa Calm     76 % 0.0 mm 204.0 W/m2 CLR
08:42 21.4 °C 17.1 °C 1019.2 hPa WNW 1.6 km/h 1.6 km/h 76 % 0.0 mm 181.0 W/m2 CLR
08:47 21.6 °C 16.9 °C 1019.2 hPa NW 6.4 km/h 6.4 km/h 75 % 0.0 mm 174.0 W/m2 CLR
08:52 21.7 °C 17.1 °C 1019.2 hPa NW 5.6 km/h 5.6 km/h 75 % 0.0 mm 260.0 W/m2 CLR
08:57 21.8 °C 17.0 °C 1019.2 hPa WNW 5.6 km/h 5.6 km/h 74 % 0.0 mm 174.0 W/m2 CLR
09:02 21.9 °C 17.1 °C 1019.2 hPa Calm     74 % 0.0 mm 123.0 W/m2 CLR
09:07 21.9 °C 16.8 °C 1019.2 hPa Calm     73 % 0.0 mm 111.0 W/m2 CLR
09:12 21.9 °C 16.8 °C 1019.2 hPa Calm     73 % 0.0 mm 114.0 W/m2 CLR
09:17 21.9 °C 16.8 °C 1019.2 hPa Calm     73 % 0.0 mm 141.0 W/m2 CLR
09:22 22.0 °C 16.9 °C 1019.2 hPa Calm     73 % 0.0 mm 160.0 W/m2 CLR
09:27 22.1 °C 17.1 °C 1019.2 hPa Calm     73 % 0.0 mm 197.0 W/m2 CLR
09:28 22.1 °C 17.1 °C 1019.2 hPa Calm     73 % 0.0 mm 244.0 W/m2 CLR
09:33 22.3 °C 17.0 °C 1019.2 hPa Calm     72 % 0.0 mm 315.0 W/m2 CLR
09:38 22.6 °C 17.3 °C 1018.8 hPa Calm     72 % 0.0 mm 367.0 W/m2 CLR
09:43 22.8 °C 17.1 °C 1018.8 hPa Calm     70 % 0.0 mm 229.0 W/m2 CLR
09:48 23.1 °C 17.1 °C 1019.2 hPa Calm     69 % 0.0 mm 290.0 W/m2 CLR
09:53 23.2 °C 17.2 °C 1019.2 hPa Calm     69 % 0.0 mm 348.0 W/m2 CLR
09:58 23.4 °C 17.4 °C 1019.2 hPa Calm     69 % 0.0 mm 397.0 W/m2 CLR
10:03 23.7 °C 17.2 °C 1019.2 hPa Calm     67 % 0.0 mm 448.0 W/m2 CLR
10:08 24.0 °C 17.5 °C 1018.8 hPa Calm     67 % 0.0 mm 381.0 W/m2 CLR
10:13 24.1 °C 17.6 °C 1018.8 hPa Calm     67 % 0.0 mm 315.0 W/m2 CLR
10:18 24.2 °C 17.4 °C 1018.8 hPa Calm     66 % 0.0 mm 436.0 W/m2 CLR
10:23 24.3 °C 17.6 °C 1018.8 hPa Calm     66 % 0.0 mm 476.0 W/m2 CLR
10:28 24.5 °C 17.5 °C 1018.8 hPa North 5.6 km/h 5.6 km/h 65 % 0.0 mm 408.0 W/m2 CLR
10:33 24.6 °C 17.3 °C 1018.8 hPa Calm     64 % 0.0 mm 487.0 W/m2 CLR
10:38 24.7 °C 17.4 °C 1018.8 hPa Calm     64 % 0.0 mm 459.0 W/m2 CLR
10:43 24.9 °C 17.7 °C 1018.8 hPa WSW 14.8 km/h 14.8 km/h 64 % 0.0 mm 571.0 W/m2 CLR
10:48 25.2 °C 17.9 °C 1018.8 hPa Calm     64 % 0.0 mm 559.0 W/m2 CLR
10:53 25.3 °C 17.8 °C 1018.8 hPa Calm     63 % 0.0 mm 457.0 W/m2 CLR
10:58 25.4 °C 17.6 °C 1018.8 hPa Calm     62 % 0.0 mm 480.0 W/m2 CLR
11:03 25.7 °C 17.9 °C 1018.8 hPa NW 9.3 km/h 9.3 km/h 62 % 0.0 mm 598.0 W/m2 CLR
11:08 25.7 °C 17.9 °C 1018.8 hPa NNW 5.6 km/h 5.6 km/h 62 % 0.0 mm 531.0 W/m2 CLR
11:13 25.7 °C 17.9 °C 1018.8 hPa Calm     62 % 0.0 mm 496.0 W/m2 CLR
11:18 26.0 °C 18.4 °C 1018.8 hPa Calm   0.8 km/h 63 % 0.0 mm 642.0 W/m2 CLR
11:23 26.3 °C 18.2 °C 1018.8 hPa North 5.6 km/h 5.6 km/h 61 % 0.0 mm 624.0 W/m2 CLR
11:28 26.5 °C 18.1 °C 1018.8 hPa ENE 5.6 km/h 5.6 km/h 60 % 0.0 mm 675.0 W/m2 CLR
11:33 26.6 °C 17.9 °C 1018.8 hPa East 7.4 km/h 7.4 km/h 59 % 0.0 mm 527.0 W/m2 CLR
11:38 26.4 °C 18.0 °C 1018.8 hPa ENE 5.6 km/h   60 % 0.0 mm 475.0 W/m2 CLR
11:43 26.5 °C 18.1 °C 1018.8 hPa NE 5.6 km/h 5.6 km/h 60 % 0.0 mm 415.0 W/m2 CLR
11:48 26.7 °C 18.3 °C 1018.8 hPa Calm     60 % 0.0 mm 707.0 W/m2 CLR
11:53 26.9 °C 18.3 °C 1018.8 hPa NE 6.4 km/h 6.4 km/h 59 % 0.0 mm 726.0 W/m2 CLR
11:58 27.1 °C 18.1 °C 1018.8 hPa ENE 1.9 km/h 1.9 km/h 58 % 0.0 mm 661.0 W/m2 CLR
12:03 27.2 °C 18.2 °C 1018.8 hPa ENE 3.7 km/h   58 % 0.0 mm 557.0 W/m2 CLR
12:08 27.4 °C 18.1 °C 1018.5 hPa North 5.6 km/h 5.6 km/h 57 % 0.0 mm 645.0 W/m2 CLR
12:13 27.4 °C 18.1 °C 1018.5 hPa East 5.6 km/h 5.6 km/h 57 % 0.0 mm 726.0 W/m2 CLR
12:18 27.3 °C 18.1 °C 1018.5 hPa Calm     57 % 0.0 mm 807.0 W/m2 CLR
12:23 27.7 °C 18.4 °C 1018.5 hPa ENE 7.4 km/h 7.4 km/h 57 % 0.0 mm 652.0 W/m2 CLR
12:28 28.0 °C 18.4 °C 1018.5 hPa Calm     56 % 0.0 mm 722.0 W/m2 CLR
12:33 28.2 °C 18.1 °C 1018.5 hPa ENE 5.6 km/h   54 % 0.0 mm 742.0 W/m2 CLR
12:38 28.1 °C 18.2 °C 1018.5 hPa Calm     55 % 0.0 mm 809.0 W/m2 CLR
12:43 28.2 °C 18.1 °C 1018.5 hPa Calm     54 % 0.0 mm 752.0 W/m2 CLR
12:48 28.2 °C 18.1 °C 1018.5 hPa Calm     54 % 0.0 mm 700.0 W/m2 CLR
12:53 28.2 °C 18.1 °C 1018.5 hPa Calm     54 % 0.0 mm 786.0 W/m2 CLR
12:58 28.4 °C 18.2 °C 1018.5 hPa Calm     54 % 0.0 mm 807.0 W/m2 CLR
13:03 28.5 °C 18.3 °C 1018.5 hPa Calm   0.2 km/h 54 % 0.0 mm 796.0 W/m2 CLR
13:09 28.6 °C 18.1 °C 1018.2 hPa ENE 9.3 km/h 9.3 km/h 53 % 0.0 mm 819.0 W/m2 CLR
13:14 28.4 °C 18.2 °C 1018.2 hPa East 3.2 km/h 3.2 km/h 54 % 0.0 mm 788.0 W/m2 CLR
13:19 28.6 °C 18.4 °C 1018.2 hPa North 5.6 km/h 5.6 km/h 54 % 0.0 mm 865.0 W/m2 CLR
13:24 28.9 °C 18.1 °C 1018.2 hPa NNE 18.5 km/h 18.5 km/h 52 % 0.0 mm 795.0 W/m2 CLR
13:29 29.0 °C 18.2 °C 1018.2 hPa NNW 1.9 km/h   52 % 0.0 mm 861.0 W/m2 CLR
13:34 29.4 °C 18.2 °C 1018.2 hPa NNW 3.7 km/h   51 % 0.0 mm 842.0 W/m2 CLR
13:39 29.6 °C 18.4 °C 1018.2 hPa East 4.8 km/h 4.8 km/h 51 % 0.0 mm 689.0 W/m2 CLR
13:44 29.3 °C 18.2 °C 1018.2 hPa ESE 11.1 km/h 11.1 km/h 51 % 0.0 mm 742.0 W/m2 CLR
13:49 29.1 °C 17.9 °C 1017.8 hPa ENE 6.4 km/h 6.4 km/h 51 % 0.0 mm 752.0 W/m2 CLR
13:54 29.1 °C 18.2 °C 1017.8 hPa East 11.1 km/h 11.1 km/h 52 % 0.0 mm 770.0 W/m2 CLR
13:59 29.1 °C 18.2 °C 1017.8 hPa East 5.6 km/h 5.6 km/h 52 % 0.0 mm 791.0 W/m2 CLR
14:04 29.2 °C 18.3 °C 1017.8 hPa ENE 9.3 km/h 9.3 km/h 52 % 0.0 mm 881.0 W/m2 CLR
14:14 29.6 °C 18.3 °C 1017.5 hPa SE 3.7 km/h 3.7 km/h 51 % 0.0 mm 868.0 W/m2 CLR
14:19 30.0 °C 18.4 °C 1017.5 hPa ENE 11.1 km/h 11.1 km/h 50 % 0.0 mm 863.0 W/m2 CLR
14:24 30.2 °C 18.3 °C 1017.5 hPa Calm     49 % 0.0 mm 858.0 W/m2 CLR
14:29 30.4 °C 18.5 °C 1017.5 hPa NE 9.3 km/h 9.3 km/h 49 % 0.0 mm 856.0 W/m2 CLR
14:34 30.6 °C 18.3 °C 1017.5 hPa Calm     48 % 0.0 mm 860.0 W/m2 CLR
14:39 30.7 °C 18.1 °C 1017.2 hPa ENE 3.7 km/h 3.7 km/h 47 % 0.0 mm 851.0 W/m2 CLR
14:44 30.7 °C 18.1 °C 1017.2 hPa Calm     47 % 0.0 mm 846.0 W/m2 CLR
14:49 30.7 °C 18.1 °C 1017.2 hPa SE 3.7 km/h 3.7 km/h 47 % 0.0 mm 840.0 W/m2 CLR
14:54 30.8 °C 18.5 °C 1017.2 hPa Calm     48 % 0.0 mm 831.0 W/m2 CLR
14:59 31.3 °C 18.3 °C 1017.2 hPa ENE 1.9 km/h 1.9 km/h 46 % 0.0 mm 828.0 W/m2 CLR
15:04 31.7 °C 18.3 °C 1016.8 hPa NE 5.6 km/h 5.6 km/h 45 % 0.0 mm 826.0 W/m2 CLR
15:09 31.7 °C 18.3 °C 1016.8 hPa ENE 5.6 km/h 5.6 km/h 45 % 0.0 mm 819.0 W/m2 CLR
15:14 31.9 °C 18.1 °C 1016.8 hPa NE 12.9 km/h 12.9 km/h 44 % 0.0 mm 816.0 W/m2 CLR
15:19 31.8 °C 18.1 °C 1016.8 hPa NE 5.6 km/h 5.6 km/h 44 % 0.0 mm 809.0 W/m2 CLR
15:24 31.9 °C 17.8 °C 1016.8 hPa East 11.1 km/h 11.1 km/h 43 % 0.0 mm 802.0 W/m2 CLR
15:29 31.8 °C 18.0 °C 1016.8 hPa SE 11.3 km/h 11.3 km/h 44 % 0.0 mm 795.0 W/m2 CLR
15:34 31.7 °C 17.9 °C 1016.8 hPa ENE 7.4 km/h 7.4 km/h 44 % 0.0 mm 789.0 W/m2 CLR
15:39 32.0 °C 17.8 °C 1016.8 hPa ENE 3.2 km/h 3.2 km/h 43 % 0.0 mm 780.0 W/m2 CLR
15:44 32.3 °C 17.7 °C 1016.5 hPa NNE 11.1 km/h 11.1 km/h 42 % 0.0 mm 775.0 W/m2 CLR
15:49 32.4 °C 17.5 °C 1016.5 hPa ENE 8.0 km/h 8.0 km/h 41 % 0.0 mm 766.0 W/m2 CLR
15:54 32.4 °C 17.5 °C 1016.5 hPa ESE 1.9 km/h 1.9 km/h 41 % 0.0 mm 751.0 W/m2 CLR
15:59 32.5 °C 17.6 °C 1016.5 hPa ENE 6.4 km/h 6.4 km/h 41 % 0.0 mm 754.0 W/m2 CLR
16:04 32.8 °C 17.8 °C 1016.5 hPa NE 9.3 km/h 9.3 km/h 41 % 0.0 mm 745.0 W/m2 CLR
16:09 33.1 °C 18.1 °C 1016.5 hPa ENE 5.6 km/h 5.6 km/h 41 % 0.0 mm 738.0 W/m2 CLR
16:14 33.1 °C 17.7 °C 1016.5 hPa NE 3.7 km/h 3.7 km/h 40 % 0.0 mm 733.0 W/m2 CLR
16:19 33.1 °C 17.7 °C 1016.5 hPa Calm     40 % 0.0 mm 700.0 W/m2 CLR
16:24 32.9 °C 17.6 °C 1016.1 hPa ENE 5.6 km/h   40 % 0.0 mm 598.0 W/m2 CLR
16:29 32.9 °C 17.5 °C 1016.1 hPa ENE 9.3 km/h 9.3 km/h 40 % 0.0 mm 696.0 W/m2 CLR
16:34 33.1 °C 17.7 °C 1016.1 hPa ENE 13.0 km/h 13.0 km/h 40 % 0.0 mm 631.0 W/m2 CLR
16:39 32.9 °C 17.6 °C 1016.1 hPa Calm     40 % 0.0 mm 656.0 W/m2 CLR
16:44 33.1 °C 17.7 °C 1016.1 hPa East 9.3 km/h 9.3 km/h 40 % 0.0 mm 696.0 W/m2 CLR
16:49 32.9 °C 17.6 °C 1016.1 hPa ENE 13.0 km/h 13.0 km/h 40 % 0.0 mm 628.0 W/m2 CLR
16:54 32.9 °C 17.5 °C 1016.1 hPa ENE 7.4 km/h 7.4 km/h 40 % 0.0 mm 624.0 W/m2 CLR
16:59 32.9 °C 17.2 °C 1015.8 hPa East 9.3 km/h 9.3 km/h 39 % 0.0 mm 636.0 W/m2 CLR
17:00 32.9 °C 17.2 °C 1015.8 hPa ENE 9.3 km/h 9.3 km/h 39 % 0.0 mm 636.0 W/m2 CLR
17:05 32.8 °C 17.0 °C 1015.8 hPa East 11.1 km/h 11.1 km/h 39 % 0.0 mm 380.0 W/m2 CLR
17:10 32.9 °C 17.1 °C 1015.8 hPa ENE 3.7 km/h   39 % 0.0 mm 459.0 W/m2 CLR
17:15 33.1 °C 16.9 °C 1015.8 hPa Calm     38 % 0.0 mm 427.0 W/m2 CLR
17:20 33.0 °C 16.8 °C 1015.8 hPa NE 13.0 km/h 13.0 km/h 38 % 0.0 mm 371.0 W/m2 CLR
17:25 32.9 °C 16.7 °C 1015.8 hPa ENE 1.6 km/h 1.9 km/h 38 % 0.0 mm 443.0 W/m2 CLR
17:30 32.9 °C 16.7 °C 1015.8 hPa ENE 7.4 km/h 7.4 km/h 38 % 0.0 mm 369.0 W/m2 CLR
17:35 32.8 °C 16.6 °C 1015.5 hPa East 1.9 km/h   38 % 0.0 mm 403.0 W/m2 CLR
17:40 33.0 °C 16.8 °C 1015.5 hPa Calm     38 % 0.0 mm 626.0 W/m2 CLR
17:45 33.3 °C 16.2 °C 1015.5 hPa NW 7.4 km/h   36 % 0.0 mm 596.0 W/m2 CLR
17:50 33.6 °C 16.5 °C 1015.5 hPa NNE 8.0 km/h 8.0 km/h 36 % 0.0 mm 510.0 W/m2 CLR
17:55 33.8 °C 15.7 °C 1015.5 hPa Calm     34 % 0.0 mm 501.0 W/m2 CLR
18:00 33.8 °C 15.3 °C 1015.5 hPa Calm     33 % 0.0 mm 476.0 W/m2 CLR
18:05 33.9 °C 15.9 °C 1015.5 hPa NE 5.6 km/h 5.6 km/h 34 % 0.0 mm 448.0 W/m2 CLR
18:06 34.0 °C 15.9 °C 1015.5 hPa NNE 5.6 km/h 5.6 km/h 34 % 0.0 mm 446.0 W/m2 CLR
18:11 34.1 °C 16.0 °C 1015.5 hPa Calm     34 % 0.0 mm 424.0 W/m2 CLR
18:16 34.1 °C 15.1 °C 1015.8 hPa Calm     32 % 0.0 mm 403.0 W/m2 CLR
18:21 34.0 °C 15.9 °C 1015.8 hPa Calm     34 % 0.0 mm 387.0 W/m2 CLR
18:26 34.1 °C 16.0 °C 1015.8 hPa NNW 8.0 km/h 8.0 km/h 34 % 0.0 mm 371.0 W/m2 CLR
18:31 34.3 °C 15.7 °C 1015.5 hPa NNE 11.1 km/h 11.1 km/h 33 % 0.0 mm 357.0 W/m2 CLR
18:36 34.2 °C 15.7 °C 1015.5 hPa Calm     33 % 0.0 mm 339.0 W/m2 CLR
18:41 34.3 °C 15.3 °C 1015.5 hPa Calm     32 % 0.0 mm 322.0 W/m2 CLR
18:46 34.3 °C 15.2 °C 1015.8 hPa NNE 9.3 km/h 9.3 km/h 32 % 0.0 mm 308.0 W/m2 CLR
18:51 34.1 °C 15.6 °C 1015.8 hPa NNE 11.3 km/h 11.3 km/h 33 % 0.0 mm 292.0 W/m2 CLR
18:56 34.0 °C 15.4 °C 1015.8 hPa North 13.0 km/h 13.0 km/h 33 % 0.0 mm 276.0 W/m2 CLR
19:01 33.7 °C 15.7 °C 1015.8 hPa Calm     34 % 0.0 mm 258.0 W/m2 CLR
19:06 33.7 °C 15.7 °C 1015.8 hPa NNW 11.1 km/h 11.1 km/h 34 % 0.0 mm 244.0 W/m2 CLR
19:11 33.7 °C 15.2 °C 1015.5 hPa North 7.4 km/h 7.4 km/h 33 % 0.0 mm 230.0 W/m2 CLR
19:16 33.6 °C 15.1 °C 1015.5 hPa North 5.6 km/h 5.6 km/h 33 % 0.0 mm 213.0 W/m2 CLR
19:21 33.6 °C 15.1 °C 1015.5 hPa Calm     33 % 0.0 mm 197.0 W/m2 CLR
19:26 33.5 °C 15.0 °C 1015.5 hPa Calm     33 % 0.0 mm 174.0 W/m2 CLR
19:31 33.4 °C 14.5 °C 1015.5 hPa Calm     32 % 0.0 mm 158.0 W/m2 CLR
19:36 33.4 °C 14.5 °C 1015.5 hPa Calm     32 % 0.0 mm 148.0 W/m2 CLR
19:41 33.6 °C 14.7 °C 1015.5 hPa Calm     32 % 0.0 mm 134.0 W/m2 CLR
19:46 33.5 °C 14.1 °C 1015.8 hPa Calm     31 % 0.0 mm 120.0 W/m2 CLR
19:51 33.4 °C 14.0 °C 1015.8 hPa Calm     31 % 0.0 mm 107.0 W/m2 CLR
19:56 33.5 °C 14.1 °C 1015.8 hPa Calm     31 % 0.0 mm 95.0 W/m2 CLR
20:01 33.6 °C 14.1 °C 1015.8 hPa Calm     31 % 0.0 mm 83.0 W/m2 FEW
20:06 33.6 °C 14.1 °C 1015.8 hPa Calm     31 % 0.0 mm 70.0 W/m2 FEW
20:11 33.4 °C 13.4 °C 1015.8 hPa Calm     30 % 0.0 mm 58.0 W/m2 SCT
20:16 33.2 °C 13.8 °C 1015.8 hPa Calm   0.2 km/h 31 % 0.0 mm 49.0 W/m2 SCT
20:21 32.9 °C 13.6 °C 1015.8 hPa Calm     31 % 0.0 mm 42.0 W/m2 BKN
20:26 32.8 °C 13.5 °C 1015.8 hPa Calm     31 % 0.0 mm 32.0 W/m2 BKN
20:31 32.7 °C 13.8 °C 1016.1 hPa Calm     32 % 0.0 mm 26.0 W/m2 BKN
20:36 32.4 °C 13.6 °C 1016.1 hPa Calm     32 % 0.0 mm 21.0 W/m2 BKN
20:37 32.4 °C 13.6 °C 1016.1 hPa Calm     32 % 0.0 mm 19.0 W/m2 BKN
20:42 31.9 °C 13.7 °C 1016.1 hPa Calm     33 % 0.0 mm 14.0 W/m2 BKN
20:47 31.6 °C 13.8 °C 1016.1 hPa Calm     34 % 0.0 mm 11.0 W/m2 BKN
20:52 31.3 °C 13.6 °C 1016.1 hPa Calm     34 % 0.0 mm 7.0 W/m2 BKN
20:57 31.0 °C 13.3 °C 1016.1 hPa Calm     34 % 0.0 mm 0.0 W/m2 OVC
21:02 30.8 °C 13.6 °C 1016.1 hPa NNW 4.8 km/h 4.8 km/h 35 % 0.0 mm 0.0 W/m2 CLR
21:07 30.5 °C 13.3 °C 1016.1 hPa NW 5.6 km/h 5.6 km/h 35 % 0.0 mm 0.0 W/m2 CLR
21:12 30.2 °C 13.4 °C 1016.5 hPa NW 5.6 km/h   36 % 0.0 mm 0.0 W/m2 CLR
21:17 29.9 °C 13.6 °C 1016.5 hPa Calm     37 % 0.0 mm 0.0 W/m2 CLR
21:22 29.8 °C 13.5 °C 1016.5 hPa Calm     37 % 0.0 mm 0.0 W/m2 CLR
21:27 29.7 °C 13.5 °C 1016.5 hPa Calm     37 % 0.0 mm 0.0 W/m2 CLR
21:32 29.6 °C 14.2 °C 1016.5 hPa Calm     39 % 0.0 mm 0.0 W/m2 CLR
21:38 29.4 °C 16.3 °C 1016.5 hPa Calm     45 % 0.0 mm 0.0 W/m2 CLR
21:43 29.3 °C 16.5 °C 1016.5 hPa Calm     46 % 0.0 mm 0.0 W/m2 CLR
21:48 29.1 °C 16.7 °C 1016.8 hPa Calm     47 % 0.0 mm 0.0 W/m2 CLR
21:53 28.8 °C 14.6 °C 1016.8 hPa Calm     42 % 0.0 mm 0.0 W/m2 CLR
21:58 28.7 °C 14.9 °C 1016.8 hPa Calm     43 % 0.0 mm 0.0 W/m2 CLR
22:03 28.5 °C 15.4 °C 1016.8 hPa Calm     45 % 0.0 mm 0.0 W/m2 CLR
22:08 28.2 °C 15.8 °C 1017.2 hPa Calm     47 % 0.0 mm 0.0 W/m2 CLR
22:13 28.0 °C 16.6 °C 1016.8 hPa Calm     50 % 0.0 mm 0.0 W/m2 CLR
22:18 27.8 °C 16.4 °C 1017.2 hPa Calm     50 % 0.0 mm 0.0 W/m2 CLR
22:23 27.7 °C 16.3 °C 1017.2 hPa Calm     50 % 0.0 mm 0.0 W/m2 CLR
22:28 27.6 °C 15.9 °C 1017.2 hPa Calm     49 % 0.0 mm 0.0 W/m2 CLR
22:33 27.3 °C 13.9 °C 1017.2 hPa Calm     44 % 0.0 mm 0.0 W/m2 CLR
22:36 27.1 °C 13.8 °C 1017.2 hPa Calm     44 % 0.0 mm 0.0 W/m2 CLR
22:41 26.6 °C 13.3 °C 1017.2 hPa Calm     44 % 0.0 mm 0.0 W/m2 CLR
22:46 26.2 °C 13.7 °C 1017.5 hPa Calm     46 % 0.0 mm 0.0 W/m2 CLR
22:51 25.9 °C 13.4 °C 1017.5 hPa Calm     46 % 0.0 mm 0.0 W/m2 CLR
22:56 25.8 °C 13.3 °C 1017.5 hPa Calm     46 % 0.0 mm 0.0 W/m2 CLR
23:01 25.6 °C 13.7 °C 1017.5 hPa Calm     48 % 0.0 mm 0.0 W/m2 CLR
23:06 25.4 °C 13.3 °C 1017.5 hPa Calm     47 % 0.0 mm 0.0 W/m2 CLR
23:11 25.3 °C 13.2 °C 1017.5 hPa Calm     47 % 0.0 mm 0.0 W/m2 CLR
23:16 25.3 °C 13.2 °C 1017.5 hPa Calm     47 % 0.0 mm 0.0 W/m2 CLR
23:21 25.3 °C 13.5 °C 1017.5 hPa Calm     48 % 0.0 mm 0.0 W/m2 CLR
23:26 25.3 °C 13.6 °C 1017.5 hPa WSW 1.9 km/h 1.9 km/h 48 % 0.0 mm 0.0 W/m2 CLR
23:31 25.4 °C 13.6 °C 1017.8 hPa Calm     48 % 0.0 mm 0.0 W/m2 CLR
23:36 25.4 °C 14.2 °C 1017.8 hPa WNW 6.4 km/h 6.4 km/h 50 % 0.0 mm 0.0 W/m2 CLR
23:41 25.7 °C 13.8 °C 1017.8 hPa WNW 5.6 km/h 5.6 km/h 48 % 0.0 mm 0.0 W/m2 CLR
23:46 26.4 °C 14.6 °C 1017.8 hPa NNW 20.4 km/h 20.4 km/h 48 % 0.0 mm 0.0 W/m2 CLR
23:51 27.5 °C 14.5 °C 1017.8 hPa NNW 20.4 km/h 20.4 km/h 45 % 0.0 mm 0.0 W/m2 CLR
23:56 27.8 °C 14.4 °C 1017.8 hPa North 12.9 km/h 12.9 km/h 44 % 0.0 mm 0.0 W/m2 CLR
Lo Temps de Massalio
Compliments of Weather Underground - 1.25 mb